BER2127 EKCH-EDDH
Flight info
| Callsign | BER2127 |
|---|---|
| Flight time | 0h 32m |
| Altitude | 24000 |
| Route | NEXEN T503 MICOS N850 BOGMU BOGMU3P |
| Aircraft | B738/M-SDE2E3FGHIRWXY/LB1 |
Departure
| Time | 2026-04-26 17:50 |
|---|---|
| Airport | Copenhagen Kastrup Airport (EKCH) |
Arrival
| Time | 2026-04-26 18:22 |
|---|---|
| Airport | Hamburg Helmut Schmidt Airport (EDDH) |
| Time | Latitude | Longitude | Altitude | Speed | Heading |
|---|---|---|---|---|---|
| 2026-04-26 17:21 | 55.62896 | 12.63805 | 16 ft | 0 kts | 12° |
| 2026-04-26 17:39 | 55.62883 | 12.63800 | 16 ft | 4 kts | 19° |
| 2026-04-26 17:39 | 55.62861 | 12.63778 | 17 ft | 4 kts | 56° |
| 2026-04-26 17:39 | 55.62855 | 12.63741 | 18 ft | 2 kts | 103° |
| 2026-04-26 17:40 | 55.62855 | 12.63738 | 17 ft | 1 kts | 104° |
| 2026-04-26 17:42 | 55.62855 | 12.63741 | 18 ft | 1 kts | 104° |
| 2026-04-26 17:42 | 55.62847 | 12.63793 | 16 ft | 6 kts | 104° |
| 2026-04-26 17:42 | 55.62836 | 12.63874 | 16 ft | 7 kts | 103° |
| 2026-04-26 17:42 | 55.62808 | 12.63954 | 17 ft | 8 kts | 154° |
| 2026-04-26 17:43 | 55.62751 | 12.63931 | 17 ft | 10 kts | 211° |
| 2026-04-26 17:43 | 55.62690 | 12.63864 | 17 ft | 11 kts | 210° |
| 2026-04-26 17:43 | 55.62628 | 12.63915 | 16 ft | 11 kts | 127° |
| 2026-04-26 17:43 | 55.62582 | 12.64040 | 16 ft | 13 kts | 123° |
| 2026-04-26 17:44 | 55.62529 | 12.64184 | 16 ft | 14 kts | 123° |
| 2026-04-26 17:44 | 55.62476 | 12.64325 | 17 ft | 14 kts | 123° |
| 2026-04-26 17:44 | 55.62418 | 12.64452 | 16 ft | 13 kts | 129° |
| 2026-04-26 17:44 | 55.62367 | 12.64582 | 16 ft | 13 kts | 122° |
| 2026-04-26 17:45 | 55.62321 | 12.64713 | 17 ft | 12 kts | 123° |
| 2026-04-26 17:45 | 55.62255 | 12.64797 | 16 ft | 12 kts | 176° |
| 2026-04-26 17:45 | 55.62180 | 12.64739 | 18 ft | 12 kts | 213° |
| 2026-04-26 17:45 | 55.62101 | 12.64649 | 17 ft | 15 kts | 212° |
| 2026-04-26 17:46 | 55.62000 | 12.64535 | 16 ft | 19 kts | 207° |
| 2026-04-26 17:46 | 55.61866 | 12.64522 | 16 ft | 21 kts | 170° |
| 2026-04-26 17:46 | 55.61721 | 12.64564 | 16 ft | 21 kts | 178° |
| 2026-04-26 17:46 | 55.61591 | 12.64470 | 16 ft | 20 kts | 212° |
| 2026-04-26 17:47 | 55.61474 | 12.64337 | 18 ft | 20 kts | 213° |
| 2026-04-26 17:47 | 55.61399 | 12.64250 | 16 ft | 19 kts | 213° |
| 2026-04-26 17:47 | 55.61254 | 12.64083 | 17 ft | 18 kts | 213° |
| 2026-04-26 17:47 | 55.61148 | 12.63962 | 16 ft | 18 kts | 213° |
| 2026-04-26 17:48 | 55.61046 | 12.63845 | 16 ft | 17 kts | 213° |
| 2026-04-26 17:48 | 55.60948 | 12.63731 | 17 ft | 16 kts | 213° |
| 2026-04-26 17:48 | 55.60854 | 12.63624 | 16 ft | 16 kts | 213° |
| 2026-04-26 17:48 | 55.60789 | 12.63594 | 17 ft | 9 kts | 157° |
| 2026-04-26 17:49 | 55.60745 | 12.63668 | 16 ft | 9 kts | 134° |
| 2026-04-26 17:49 | 55.60705 | 12.63748 | 17 ft | 8 kts | 129° |
| 2026-04-26 17:49 | 55.60672 | 12.63832 | 18 ft | 8 kts | 109° |
| 2026-04-26 17:49 | 55.60712 | 12.63927 | 18 ft | 19 kts | 41° |
| 2026-04-26 17:50 | 55.60852 | 12.64143 | 18 ft | 62 kts | 41° |
| 2026-04-26 17:50 | 55.61552 | 12.65227 | 15 ft | 135 kts | 41° |
| 2026-04-26 17:50 | 55.62356 | 12.66450 | 182 ft | 162 kts | 40° |
| 2026-04-26 17:50 | 55.63227 | 12.67793 | 661 ft | 172 kts | 39° |
| 2026-04-26 17:51 | 55.64145 | 12.69238 | 1199 ft | 181 kts | 40° |
| 2026-04-26 17:51 | 55.65118 | 12.70743 | 1752 ft | 187 kts | 38° |
| 2026-04-26 17:51 | 55.66090 | 12.72410 | 2019 ft | 211 kts | 55° |
| 2026-04-26 17:51 | 55.66514 | 12.74945 | 2330 ft | 222 kts | 92° |
| 2026-04-26 17:52 | 55.66041 | 12.77544 | 2761 ft | 226 kts | 127° |
| 2026-04-26 17:52 | 55.64854 | 12.79343 | 3224 ft | 226 kts | 152° |
| 2026-04-26 17:52 | 55.63425 | 12.80753 | 3479 ft | 242 kts | 154° |
| 2026-04-26 17:52 | 55.61854 | 12.82196 | 3675 ft | 263 kts | 155° |
| 2026-04-26 17:53 | 55.60218 | 12.83663 | 4224 ft | 271 kts | 155° |
| 2026-04-26 17:53 | 55.58458 | 12.84860 | 4837 ft | 273 kts | 176° |
| 2026-04-26 17:53 | 55.56632 | 12.84294 | 5496 ft | 266 kts | 213° |
| 2026-04-26 17:54 | 55.53866 | 12.79992 | 6946 ft | 269 kts | 226° |
| 2026-04-26 17:54 | 55.52461 | 12.77774 | 7676 ft | 273 kts | 226° |
| 2026-04-26 17:54 | 55.51019 | 12.75525 | 8392 ft | 278 kts | 226° |
| 2026-04-26 17:54 | 55.49552 | 12.73259 | 9115 ft | 283 kts | 226° |
| 2026-04-26 17:55 | 55.48070 | 12.70984 | 9831 ft | 287 kts | 226° |
| 2026-04-26 17:55 | 55.46544 | 12.68656 | 10517 ft | 292 kts | 226° |
| 2026-04-26 17:55 | 55.44952 | 12.66229 | 10750 ft | 314 kts | 226° |
| 2026-04-26 17:55 | 55.43243 | 12.63628 | 10931 ft | 335 kts | 226° |
| 2026-04-26 17:56 | 55.41452 | 12.60918 | 11283 ft | 349 kts | 225° |
| 2026-04-26 17:56 | 55.37695 | 12.55285 | 12632 ft | 356 kts | 226° |
| 2026-04-26 17:57 | 55.33903 | 12.49623 | 14089 ft | 363 kts | 226° |
| 2026-04-26 17:57 | 55.31967 | 12.46734 | 14751 ft | 366 kts | 226° |
| 2026-04-26 17:57 | 55.30008 | 12.43815 | 15429 ft | 369 kts | 226° |
| 2026-04-26 17:57 | 55.28041 | 12.40888 | 16109 ft | 373 kts | 226° |
| 2026-04-26 17:58 | 55.22035 | 12.31966 | 18101 ft | 384 kts | 226° |
| 2026-04-26 17:59 | 55.17919 | 12.25874 | 19223 ft | 390 kts | 226° |
| 2026-04-26 17:59 | 55.15828 | 12.22784 | 19419 ft | 396 kts | 226° |
| 2026-04-26 17:59 | 55.13742 | 12.19707 | 19999 ft | 397 kts | 226° |
| 2026-04-26 17:59 | 55.11624 | 12.16593 | 20704 ft | 396 kts | 226° |
| 2026-04-26 18:00 | 55.09504 | 12.13476 | 21294 ft | 399 kts | 226° |
| 2026-04-26 18:00 | 55.07380 | 12.10356 | 21714 ft | 405 kts | 225° |
| 2026-04-26 18:00 | 55.05199 | 12.07153 | 21998 ft | 411 kts | 225° |
| 2026-04-26 18:00 | 55.03003 | 12.03935 | 22263 ft | 413 kts | 225° |
| 2026-04-26 18:01 | 55.00791 | 12.00704 | 22270 ft | 413 kts | 225° |
| 2026-04-26 18:01 | 54.98601 | 11.97513 | 22278 ft | 408 kts | 225° |
| 2026-04-26 18:01 | 54.96443 | 11.94372 | 22285 ft | 408 kts | 225° |
| 2026-04-26 18:01 | 54.94258 | 11.91192 | 22290 ft | 409 kts | 225° |
| 2026-04-26 18:02 | 54.92062 | 11.87999 | 22274 ft | 410 kts | 225° |
| 2026-04-26 18:02 | 54.91323 | 11.86925 | 22278 ft | 410 kts | 225° |
| 2026-04-26 18:02 | 54.87692 | 11.81659 | 22286 ft | 410 kts | 225° |
| 2026-04-26 18:02 | 54.85493 | 11.78477 | 22281 ft | 410 kts | 225° |
| 2026-04-26 18:03 | 54.84039 | 11.76375 | 22280 ft | 410 kts | 225° |
| 2026-04-26 18:03 | 54.81129 | 11.72175 | 22281 ft | 409 kts | 225° |
| 2026-04-26 18:03 | 54.78937 | 11.69017 | 22281 ft | 409 kts | 225° |
| 2026-04-26 18:03 | 54.76746 | 11.65865 | 22283 ft | 408 kts | 225° |
| 2026-04-26 18:04 | 54.75295 | 11.63780 | 22281 ft | 408 kts | 225° |
| 2026-04-26 18:04 | 54.73106 | 11.60638 | 22282 ft | 408 kts | 225° |
| 2026-04-26 18:04 | 54.70914 | 11.57496 | 22260 ft | 408 kts | 225° |
| 2026-04-26 18:05 | 54.66569 | 11.51281 | 22279 ft | 407 kts | 225° |
| 2026-04-26 18:05 | 54.64377 | 11.48153 | 22283 ft | 407 kts | 225° |
| 2026-04-26 18:05 | 54.62190 | 11.45036 | 22284 ft | 407 kts | 225° |
| 2026-04-26 18:05 | 54.60027 | 11.41957 | 22286 ft | 407 kts | 225° |
| 2026-04-26 18:06 | 54.57842 | 11.38852 | 22289 ft | 407 kts | 225° |
| 2026-04-26 18:06 | 54.55656 | 11.35750 | 22286 ft | 406 kts | 225° |
| 2026-04-26 18:06 | 54.53490 | 11.32686 | 22009 ft | 398 kts | 224° |
| 2026-04-26 18:06 | 54.51350 | 11.29659 | 21443 ft | 397 kts | 224° |
| 2026-04-26 18:07 | 54.49212 | 11.26637 | 20801 ft | 398 kts | 224° |
| 2026-04-26 18:07 | 54.47098 | 11.23652 | 20239 ft | 396 kts | 224° |
| 2026-04-26 18:07 | 54.44972 | 11.20655 | 19752 ft | 393 kts | 224° |
| 2026-04-26 18:07 | 54.43571 | 11.18683 | 19447 ft | 391 kts | 224° |
| 2026-04-26 18:08 | 54.40765 | 11.14739 | 18801 ft | 387 kts | 224° |
| 2026-04-26 18:08 | 54.38706 | 11.11849 | 18301 ft | 385 kts | 224° |
| 2026-04-26 18:08 | 54.36643 | 11.08953 | 17764 ft | 382 kts | 224° |
| 2026-04-26 18:08 | 54.34580 | 11.06064 | 17239 ft | 380 kts | 224° |
| 2026-04-26 18:09 | 54.32533 | 11.03205 | 16738 ft | 377 kts | 224° |
| 2026-04-26 18:09 | 54.30545 | 11.00288 | 16226 ft | 373 kts | 229° |
| 2026-04-26 18:09 | 54.28904 | 10.96985 | 15734 ft | 366 kts | 236° |
| 2026-04-26 18:09 | 54.27139 | 10.93800 | 15232 ft | 371 kts | 224° |
| 2026-04-26 18:10 | 54.25078 | 10.91131 | 14746 ft | 370 kts | 220° |
| 2026-04-26 18:10 | 54.22992 | 10.88547 | 14275 ft | 369 kts | 220° |
| 2026-04-26 18:10 | 54.20919 | 10.85987 | 13781 ft | 367 kts | 220° |
| 2026-04-26 18:10 | 54.18872 | 10.83443 | 13300 ft | 365 kts | 220° |
| 2026-04-26 18:11 | 54.16832 | 10.80890 | 12824 ft | 362 kts | 220° |
| 2026-04-26 18:11 | 54.14807 | 10.78341 | 12346 ft | 359 kts | 220° |
| 2026-04-26 18:11 | 54.12824 | 10.75838 | 11901 ft | 357 kts | 220° |
| 2026-04-26 18:11 | 54.10831 | 10.73320 | 11452 ft | 355 kts | 220° |
| 2026-04-26 18:12 | 54.08864 | 10.70835 | 10978 ft | 348 kts | 220° |
| 2026-04-26 18:12 | 54.06939 | 10.68408 | 10513 ft | 339 kts | 220° |
| 2026-04-26 18:12 | 54.05064 | 10.66044 | 10034 ft | 331 kts | 220° |
| 2026-04-26 18:12 | 54.03259 | 10.63771 | 9624 ft | 320 kts | 220° |
| 2026-04-26 18:13 | 54.01500 | 10.61560 | 9351 ft | 306 kts | 220° |
| 2026-04-26 18:13 | 53.99826 | 10.59457 | 9145 ft | 292 kts | 220° |
| 2026-04-26 18:13 | 53.98234 | 10.57459 | 9013 ft | 277 kts | 220° |
| 2026-04-26 18:13 | 53.97219 | 10.56184 | 8799 ft | 272 kts | 220° |
| 2026-04-26 18:14 | 53.95191 | 10.53635 | 8225 ft | 270 kts | 220° |
| 2026-04-26 18:14 | 53.93700 | 10.51763 | 7804 ft | 268 kts | 220° |
| 2026-04-26 18:14 | 53.92207 | 10.49892 | 7413 ft | 265 kts | 220° |
| 2026-04-26 18:14 | 53.90737 | 10.48053 | 7175 ft | 256 kts | 220° |
| 2026-04-26 18:15 | 53.89356 | 10.46330 | 7051 ft | 243 kts | 220° |
| 2026-04-26 18:15 | 53.88005 | 10.44642 | 6772 ft | 238 kts | 220° |
| 2026-04-26 18:15 | 53.86675 | 10.42978 | 6411 ft | 237 kts | 220° |
| 2026-04-26 18:15 | 53.85356 | 10.41333 | 6097 ft | 233 kts | 219° |
| 2026-04-26 18:16 | 53.84060 | 10.39719 | 5759 ft | 230 kts | 219° |
| 2026-04-26 18:16 | 53.81598 | 10.36389 | 5075 ft | 223 kts | 229° |
| 2026-04-26 18:16 | 53.80582 | 10.34386 | 4791 ft | 223 kts | 233° |
| 2026-04-26 18:17 | 53.79633 | 10.32353 | 4564 ft | 221 kts | 233° |
| 2026-04-26 18:17 | 53.78671 | 10.30354 | 4404 ft | 217 kts | 231° |
| 2026-04-26 18:17 | 53.77702 | 10.28386 | 4332 ft | 215 kts | 231° |
| 2026-04-26 18:17 | 53.76735 | 10.26439 | 4107 ft | 219 kts | 231° |
| 2026-04-26 18:18 | 53.75740 | 10.24437 | 3827 ft | 224 kts | 231° |
| 2026-04-26 18:18 | 53.74735 | 10.22417 | 3532 ft | 224 kts | 231° |
| 2026-04-26 18:18 | 53.73748 | 10.20433 | 3215 ft | 216 kts | 231° |
| 2026-04-26 18:18 | 53.72807 | 10.18540 | 2911 ft | 202 kts | 231° |
| 2026-04-26 18:19 | 53.71942 | 10.16801 | 2649 ft | 190 kts | 232° |
| 2026-04-26 18:19 | 53.71114 | 10.15134 | 2402 ft | 180 kts | 233° |
| 2026-04-26 18:19 | 53.70332 | 10.13559 | 2169 ft | 171 kts | 234° |
| 2026-04-26 18:19 | 53.69571 | 10.12024 | 1940 ft | 170 kts | 233° |
| 2026-04-26 18:20 | 53.68816 | 10.10499 | 1689 ft | 165 kts | 234° |
| 2026-04-26 18:20 | 53.68116 | 10.09088 | 1469 ft | 153 kts | 233° |
| 2026-04-26 18:20 | 53.67460 | 10.07765 | 1258 ft | 144 kts | 233° |
| 2026-04-26 18:20 | 53.67022 | 10.06881 | 1155 ft | 147 kts | 234° |
| 2026-04-26 18:21 | 53.66141 | 10.05101 | 859 ft | 148 kts | 234° |
| 2026-04-26 18:21 | 53.65484 | 10.03769 | 684 ft | 149 kts | 235° |
| 2026-04-26 18:21 | 53.64819 | 10.02420 | 466 ft | 150 kts | 234° |
| 2026-04-26 18:21 | 53.64140 | 10.01094 | 266 ft | 148 kts | 236° |
| 2026-04-26 18:22 | 53.63503 | 9.99772 | 66 ft | 146 kts | 235° |
| 2026-04-26 18:22 | 53.62907 | 9.98563 | 50 ft | 116 kts | 230° |
| 2026-04-26 18:22 | 53.62487 | 9.97717 | 50 ft | 63 kts | 230° |
| 2026-04-26 18:22 | 53.62313 | 9.97389 | 52 ft | 23 kts | 210° |
| 2026-04-26 18:23 | 53.62193 | 9.97436 | 51 ft | 19 kts | 123° |
| 2026-04-26 18:23 | 53.62199 | 9.97632 | 48 ft | 18 kts | 49° |
| 2026-04-26 18:23 | 53.62281 | 9.97789 | 50 ft | 17 kts | 50° |
| 2026-04-26 18:23 | 53.62356 | 9.97945 | 50 ft | 17 kts | 51° |
| 2026-04-26 18:24 | 53.62428 | 9.98096 | 50 ft | 16 kts | 54° |
| 2026-04-26 18:24 | 53.62466 | 9.98267 | 48 ft | 16 kts | 79° |
| 2026-04-26 18:24 | 53.62486 | 9.98443 | 50 ft | 15 kts | 78° |
| 2026-04-26 18:24 | 53.62506 | 9.98611 | 50 ft | 14 kts | 79° |
| 2026-04-26 18:25 | 53.62525 | 9.98773 | 50 ft | 14 kts | 78° |
| 2026-04-26 18:25 | 53.62542 | 9.98927 | 50 ft | 13 kts | 79° |
| 2026-04-26 18:25 | 53.62559 | 9.99075 | 50 ft | 13 kts | 80° |
| 2026-04-26 18:25 | 53.62576 | 9.99232 | 50 ft | 14 kts | 79° |
| 2026-04-26 18:26 | 53.62596 | 9.99399 | 50 ft | 16 kts | 79° |
| 2026-04-26 18:26 | 53.62620 | 9.99613 | 50 ft | 21 kts | 79° |
| 2026-04-26 18:26 | 53.62662 | 9.99821 | 50 ft | 18 kts | 46° |
| 2026-04-26 18:26 | 53.62737 | 9.99901 | 52 ft | 6 kts | 29° |
| 2026-04-26 18:27 | 53.62775 | 9.99937 | 51 ft | 6 kts | 30° |
| 2026-04-26 18:27 | 53.62792 | 9.99954 | 52 ft | 3 kts | 30° |
| 2026-04-26 18:27 | 53.62824 | 9.99987 | 51 ft | 8 kts | 34° |
| 2026-04-26 18:27 | 53.62873 | 10.00051 | 50 ft | 9 kts | 37° |
| 2026-04-26 18:28 | 53.62926 | 10.00112 | 48 ft | 9 kts | 33° |
| 2026-04-26 18:28 | 53.62942 | 10.00202 | 50 ft | 9 kts | 104° |
| 2026-04-26 18:28 | 53.62930 | 10.00268 | 50 ft | 0 kts | 107° |